CWSA

Sable Island Airport

Nova Scotia, Canada
METAR CWSA 201147Z AUTO 18008KT 2 1/2SM BR SCT004 OVC050 10/09 A2990 RMK SLP128
Observed Flight Rules
Nov-20 @ 11:47 UTC (21 minutes ago) Instrument Flight Rules
Wind Visibility Clouds Conditions
180° at 8 knots 2 1/2 miles
  • Scattered at 400' AGL
  • Overcast at 5,000' AGL
  • Mist
Temperatures Readings
Current 10°C / 50°F
Dewpoint 9°C / 48°F
Humidity 94%
Altimeter 29.9" Hg
Pressure 1012.8 hPa
Elevation 4
METAR CWSA 201147Z AUTO 18008KT 2 1/2SM BR SCT004 OVC050 10/09 A2990 RMK SLP128
Observed Flight Rules
Nov-20 @ 11:47 UTC
(21 minutes ago)
IFR
Wind Visibility
180° at 8 knots 2 1/2 miles
Clouds
  • Scattered at 400' AGL
  • Overcast at 5,000' AGL
Conditions
  • Mist
Temperature Dewpoint
10°C / 50°F 9°C / 48°F
Humidity Altimeter Pressure
94% 29.9" Hg 1012.8 hPa